createdAt,value
2017-04-01T00:00:59.870Z,44.50
2017-04-01T00:02:03.803Z,43.10
2017-04-01T00:03:08.064Z,43.20
2017-04-01T00:04:11.715Z,43.90
2017-04-01T00:05:15.572Z,44.30
2017-04-01T00:06:19.414Z,45.70
2017-04-01T00:07:23.061Z,44.80
2017-04-01T00:08:26.729Z,42.80
2017-04-01T00:09:30.756Z,44.20
2017-04-01T00:10:34.522Z,45.30
2017-04-01T00:11:38.158Z,46.30
2017-04-01T00:12:42.455Z,44.80
2017-04-01T00:13:46.978Z,45.10
2017-04-01T00:14:50.759Z,44.10
2017-04-01T00:15:54.376Z,46.10
2017-04-01T00:16:59.038Z,45.90
2017-04-01T00:18:03.098Z,45.70
2017-04-01T00:19:07.222Z,44.90
2017-04-01T00:20:11.009Z,43.90
2017-04-01T00:21:14.965Z,44.40
2017-04-01T00:22:18.765Z,45.70
2017-04-01T00:23:22.572Z,43.60
2017-04-01T00:24:26.058Z,42.60
2017-04-01T00:25:30.205Z,42.50
2017-04-01T00:26:33.934Z,43.30
2017-04-01T00:27:37.743Z,41.80
2017-04-01T00:28:41.806Z,42.50
2017-04-01T00:29:45.841Z,43.60
2017-04-01T00:30:49.595Z,45.30
2017-04-01T00:31:53.436Z,44.40
2017-04-01T00:32:57.041Z,44.40
2017-04-01T00:34:00.971Z,44.00
2017-04-01T00:35:04.813Z,43.50
2017-04-01T00:36:08.473Z,42.70
2017-04-01T00:37:12.834Z,43.90
2017-04-01T00:38:16.648Z,44.50
2017-04-01T00:39:20.452Z,44.60
2017-04-01T00:40:23.802Z,45.20
2017-04-01T00:41:27.631Z,45.00
2017-04-01T00:42:31.678Z,44.10
2017-04-01T00:43:36.670Z,44.50
2017-04-01T00:44:40.348Z,44.00
2017-04-01T00:45:44.126Z,43.50
2017-04-01T00:46:48.351Z,43.60
2017-04-01T00:47:51.754Z,44.90
2017-04-01T00:48:55.347Z,43.40
2017-04-01T00:49:58.978Z,43.80
2017-04-01T00:51:02.836Z,43.30
2017-04-01T00:52:06.641Z,44.40
2017-04-01T00:53:10.380Z,45.70
2017-04-01T00:54:14.110Z,46.50
2017-04-01T00:55:17.778Z,44.80
2017-04-01T00:56:21.529Z,46.80
2017-04-01T00:57:25.145Z,46.30
2017-04-01T00:58:28.939Z,45.60
2017-04-01T00:59:32.755Z,45.40
2017-04-01T01:00:36.498Z,45.10
2017-04-01T01:01:41.242Z,45.50
2017-04-01T01:02:45.318Z,44.60
2017-04-01T01:03:49.313Z,45.50
2017-04-01T01:04:53.294Z,46.00
2017-04-01T01:05:57.392Z,45.60
2017-04-01T01:07:01.700Z,45.50
2017-04-01T01:08:05.513Z,44.90
2017-04-01T01:09:09.343Z,43.80
2017-04-01T01:10:13.286Z,42.50
2017-04-01T01:11:17.412Z,42.90
2017-04-01T01:12:22.405Z,43.10
2017-04-01T01:13:26.609Z,44.40
2017-04-01T01:14:31.327Z,42.30
2017-04-01T01:15:34.999Z,42.20
2017-04-01T01:16:38.860Z,42.50
2017-04-01T01:17:42.570Z,42.70
2017-04-01T01:18:46.338Z,44.20
2017-04-01T01:19:50.324Z,45.20
2017-04-01T01:20:54.273Z,45.00
2017-04-01T01:21:58.222Z,45.00
2017-04-01T01:23:01.981Z,44.40
2017-04-01T01:24:06.135Z,43.40
2017-04-01T01:25:09.885Z,43.70
2017-04-01T01:26:14.706Z,42.80
2017-04-01T01:27:18.686Z,43.30
2017-04-01T01:28:22.374Z,43.70
2017-04-01T01:29:25.960Z,44.40
2017-04-01T01:30:29.749Z,44.90
2017-04-01T01:31:33.520Z,45.50
2017-04-01T01:32:37.347Z,45.00
2017-04-01T01:33:40.964Z,43.90
2017-04-01T01:34:44.923Z,44.00
2017-04-01T01:35:48.218Z,42.50
2017-04-01T01:36:52.191Z,42.80
2017-04-01T01:37:56.101Z,43.70
2017-04-01T01:38:59.833Z,43.90
2017-04-01T01:40:03.473Z,44.70
2017-04-01T01:41:07.126Z,45.10
2017-04-01T01:42:11.715Z,45.70
2017-04-01T01:43:15.040Z,45.90
2017-04-01T01:44:18.974Z,45.80
2017-04-01T01:45:23.417Z,45.80
2017-04-01T01:46:27.385Z,45.50
2017-04-01T01:47:31.373Z,45.80
2017-04-01T01:48:34.840Z,45.80
2017-04-01T01:49:38.627Z,45.10
2017-04-01T01:50:42.253Z,44.60
2017-04-01T01:51:46.029Z,45.80
2017-04-01T01:52:49.871Z,46.00
2017-04-01T01:53:53.743Z,45.80
2017-04-01T01:54:58.233Z,45.90
2017-04-01T01:56:02.907Z,44.50
2017-04-01T01:57:06.583Z,44.60
2017-04-01T01:58:10.356Z,46.20
2017-04-01T01:59:14.149Z,46.50
2017-04-01T02:00:17.913Z,46.70
2017-04-01T02:01:21.482Z,46.60
2017-04-01T02:02:26.225Z,46.20
2017-04-01T02:03:30.961Z,46.20
2017-04-01T02:04:35.189Z,47.50
2017-04-01T02:05:38.598Z,46.90
2017-04-01T02:06:42.288Z,46.80
2017-04-01T02:07:46.003Z,47.10
2017-04-01T02:08:50.435Z,48.20
2017-04-01T02:09:54.408Z,49.60
2017-04-01T02:10:58.388Z,49.40
2017-04-01T02:12:03.091Z,49.00
2017-04-01T02:13:07.096Z,49.90
2017-04-01T02:14:11.197Z,50.50
2017-04-01T02:15:15.918Z,51.10
2017-04-01T02:16:19.619Z,50.80
2017-04-01T02:17:23.977Z,50.00
2017-04-01T02:18:27.834Z,49.90
2017-04-01T02:20:35.219Z,51.30
2017-04-01T02:21:41.968Z,52.30
2017-04-01T02:22:46.476Z,50.90
2017-04-01T02:23:50.606Z,51.80
2017-04-01T02:24:54.502Z,51.80
2017-04-01T02:25:58.382Z,53.70
2017-04-01T02:27:01.973Z,52.50
2017-04-01T02:28:06.178Z,52.60
2017-04-01T02:29:10.895Z,52.80
2017-04-01T02:30:14.530Z,55.10
2017-04-01T02:31:18.300Z,57.40
2017-04-01T02:32:22.016Z,57.40
2017-04-01T02:33:25.947Z,57.20
2017-04-01T02:34:30.148Z,57.50
2017-04-01T02:35:34.365Z,58.70
2017-04-01T02:36:38.383Z,59.90
2017-04-01T02:37:42.046Z,61.30
2017-04-01T02:38:46.632Z,62.10
2017-04-01T02:39:50.470Z,62.40
2017-04-01T02:40:54.526Z,62.70
2017-04-01T02:41:59.137Z,62.70
2017-04-01T02:43:02.809Z,62.40
2017-04-01T02:44:06.307Z,61.90
2017-04-01T02:45:09.477Z,61.60
2017-04-01T02:46:13.455Z,61.70
2017-04-01T02:47:17.072Z,61.40
2017-04-01T02:48:20.851Z,61.20
2017-04-01T02:49:24.147Z,61.10
2017-04-01T02:50:28.007Z,61.70
2017-04-01T02:51:31.887Z,61.80
2017-04-01T02:52:34.977Z,61.60
2017-04-01T02:53:38.979Z,61.80
2017-04-01T02:54:42.709Z,61.30
2017-04-01T02:55:46.393Z,61.20
2017-04-01T02:56:50.278Z,61.80
2017-04-01T02:57:54.293Z,62.70
2017-04-01T02:58:57.689Z,63.60
2017-04-01T03:00:01.799Z,65.20
2017-04-01T03:01:05.425Z,64.70
2017-04-01T03:02:09.274Z,64.50
2017-04-01T03:03:13.141Z,64.80
2017-04-01T03:04:17.209Z,65.40
2017-04-01T03:05:21.002Z,67.20
2017-04-01T03:06:24.943Z,68.40
2017-04-01T03:07:28.790Z,68.80
2017-04-01T03:08:32.711Z,68.70
2017-04-01T03:09:36.795Z,68.00
2017-04-01T03:10:40.718Z,67.80
2017-04-01T03:11:45.314Z,67.40
2017-04-01T03:12:49.037Z,67.10
2017-04-01T03:13:53.241Z,66.20
2017-04-01T03:14:57.320Z,66.30
2017-04-01T03:16:02.439Z,66.60
2017-04-01T03:17:06.588Z,67.30
2017-04-01T03:18:10.539Z,68.00
2017-04-01T03:19:13.979Z,67.30
2017-04-01T03:20:17.874Z,66.50
2017-04-01T03:21:22.113Z,65.50
2017-04-01T03:22:26.117Z,65.90
2017-04-01T03:23:30.044Z,65.90
2017-04-01T03:24:33.919Z,65.80
2017-04-01T03:25:37.742Z,65.80
2017-04-01T03:26:41.410Z,65.80
2017-04-01T03:27:44.975Z,66.40
2017-04-01T03:28:48.513Z,67.40
2017-04-01T03:29:52.089Z,67.80
2017-04-01T03:30:55.964Z,67.90
2017-04-01T03:31:59.704Z,68.00
2017-04-01T03:33:03.470Z,67.20
2017-04-01T03:34:08.104Z,67.30
2017-04-01T03:35:11.679Z,67.20
2017-04-01T03:36:15.332Z,69.20
2017-04-01T03:37:19.198Z,71.10
2017-04-01T03:38:23.061Z,72.20
2017-04-01T03:39:26.793Z,72.60
2017-04-01T03:40:30.792Z,73.20
2017-04-01T03:41:34.542Z,74.50
2017-04-01T03:42:38.435Z,74.70
2017-04-01T03:43:41.706Z,74.50
2017-04-01T03:44:45.765Z,72.20
2017-04-01T03:45:49.618Z,71.20
2017-04-01T03:46:53.696Z,69.90
2017-04-01T03:47:57.808Z,69.20
2017-04-01T03:49:02.542Z,70.60
2017-04-01T03:50:06.515Z,72.00
2017-04-01T03:51:10.434Z,73.00
2017-04-01T03:52:14.940Z,75.00
2017-04-01T03:53:18.759Z,75.60
2017-04-01T03:54:22.561Z,75.40
2017-04-01T03:55:26.346Z,74.80
2017-04-01T03:56:30.440Z,75.00
2017-04-01T03:57:34.288Z,76.10
2017-04-01T03:58:37.928Z,77.00
2017-04-01T03:59:41.789Z,77.90
2017-04-01T04:00:45.971Z,78.20
2017-04-01T04:01:49.909Z,77.40
2017-04-01T04:02:54.005Z,77.30
2017-04-01T04:03:57.761Z,78.40
2017-04-01T04:05:01.822Z,77.70
2017-04-01T04:06:05.753Z,77.70
2017-04-01T04:07:08.948Z,75.40
2017-04-01T04:08:13.253Z,74.40
2017-04-01T04:09:17.145Z,75.70
2017-04-01T04:10:20.950Z,72.40
2017-04-01T04:11:24.819Z,72.80
2017-04-01T04:12:28.679Z,71.80
2017-04-01T04:13:31.798Z,70.10
2017-04-01T04:14:35.411Z,74.20
2017-04-01T04:15:39.225Z,75.20
2017-04-01T04:16:47.001Z,75.60
2017-04-01T04:17:51.288Z,73.90
2017-04-01T04:18:54.991Z,74.60
2017-04-01T04:19:59.748Z,73.70
2017-04-01T04:21:03.497Z,74.30
2017-04-01T04:22:07.616Z,75.20
2017-04-01T04:23:11.486Z,75.70
2017-04-01T04:24:15.589Z,76.00
2017-04-01T04:25:19.191Z,75.80
2017-04-01T04:26:22.680Z,74.80
2017-04-01T04:27:26.568Z,74.40
2017-04-01T04:28:30.268Z,72.90
2017-04-01T04:29:33.856Z,73.00
2017-04-01T04:30:37.561Z,74.60
2017-04-01T04:31:41.290Z,74.70
2017-04-01T04:32:45.537Z,74.10
2017-04-01T04:33:49.940Z,71.90
2017-04-01T04:34:54.000Z,70.60
2017-04-01T04:35:58.078Z,71.00
2017-04-01T04:37:01.705Z,72.40
2017-04-01T04:38:05.328Z,71.40
2017-04-01T04:39:09.031Z,70.50
2017-04-01T04:40:12.898Z,70.70
2017-04-01T04:41:17.048Z,71.00
2017-04-01T04:42:20.703Z,70.70
2017-04-01T04:43:24.634Z,71.40
2017-04-01T04:44:28.524Z,72.30
2017-04-01T04:45:32.329Z,71.30
2017-04-01T04:46:35.954Z,70.10
2017-04-01T04:47:39.738Z,70.30
2017-04-01T04:48:43.320Z,70.00
2017-04-01T04:49:47.131Z,69.60
2017-04-01T04:50:50.968Z,69.50
2017-04-01T04:51:54.582Z,69.40
2017-04-01T04:52:58.713Z,68.60
2017-04-01T04:54:03.778Z,67.50
2017-04-01T04:55:10.212Z,67.40
2017-04-01T04:56:13.698Z,67.90
2017-04-01T04:57:17.491Z,69.60
2017-04-01T04:58:21.327Z,71.20
2017-04-01T04:59:25.129Z,70.40
2017-04-01T05:00:29.089Z,70.40
2017-04-01T05:01:33.202Z,70.10
2017-04-01T05:02:37.317Z,71.60
2017-04-01T05:03:41.196Z,71.10
2017-04-01T05:04:46.190Z,72.10
2017-04-01T05:05:50.070Z,72.20
2017-04-01T05:06:53.845Z,71.50
2017-04-01T05:07:57.468Z,71.20
2017-04-01T05:09:01.325Z,71.20
2017-04-01T05:10:04.987Z,70.70
2017-04-01T05:11:08.666Z,70.60
2017-04-01T05:12:12.574Z,70.30
2017-04-01T05:13:16.445Z,69.90
2017-04-01T05:14:20.252Z,68.10
2017-04-01T05:15:24.134Z,69.80
2017-04-01T05:16:28.014Z,68.40
2017-04-01T05:17:32.716Z,73.70
2017-04-01T05:18:37.619Z,71.40
2017-04-01T05:19:41.198Z,70.30
2017-04-01T05:20:45.299Z,70.70
2017-04-01T05:21:49.070Z,71.40
2017-04-01T05:22:52.718Z,71.10
2017-04-01T05:23:56.491Z,71.80
2017-04-01T05:25:00.543Z,72.60
2017-04-01T05:26:04.160Z,71.20
2017-04-01T05:27:08.073Z,71.80
2017-04-01T05:28:11.608Z,71.10
2017-04-01T05:29:15.178Z,69.40
2017-04-01T05:30:18.744Z,68.80
2017-04-01T05:31:22.571Z,67.70
2017-04-01T05:32:26.490Z,67.60
2017-04-01T05:33:30.462Z,67.20
2017-04-01T05:34:34.292Z,68.80
2017-04-01T05:35:37.877Z,68.40
2017-04-01T05:36:41.804Z,69.20
2017-04-01T05:37:45.287Z,68.80
2017-04-01T05:38:49.431Z,69.10
2017-04-01T05:39:54.344Z,68.40
2017-04-01T05:40:58.205Z,68.80
2017-04-01T05:42:02.090Z,70.50
2017-04-01T05:43:06.303Z,72.10
2017-04-01T05:44:10.228Z,73.20
2017-04-01T05:45:14.119Z,72.40
2017-04-01T05:46:17.847Z,74.00
2017-04-01T05:47:21.656Z,74.40
2017-04-01T05:48:25.702Z,74.40
2017-04-01T05:49:29.433Z,74.40
2017-04-01T05:50:33.228Z,74.80
2017-04-01T05:51:36.734Z,73.80
2017-04-01T05:52:40.529Z,73.60
2017-04-01T05:53:44.520Z,72.70
2017-04-01T05:54:49.350Z,72.60
2017-04-01T05:55:52.989Z,73.60
2017-04-01T05:56:57.014Z,73.30
2017-04-01T05:58:01.768Z,73.00
2017-04-01T05:59:05.718Z,73.10
2017-04-01T06:00:09.878Z,73.00
2017-04-01T06:01:14.068Z,72.90
2017-04-01T06:02:18.176Z,73.30
2017-04-01T06:03:21.983Z,74.40
2017-04-01T06:04:25.829Z,74.80
2017-04-01T06:05:29.559Z,75.50
2017-04-01T06:06:33.601Z,75.40
2017-04-01T06:07:37.292Z,75.20
2017-04-01T06:08:41.322Z,74.20
2017-04-01T06:09:46.153Z,74.30
2017-04-01T06:10:49.915Z,73.00
2017-04-01T06:11:53.989Z,71.90
2017-04-01T06:12:57.151Z,71.80
2017-04-01T06:14:01.117Z,73.20
2017-04-01T06:15:05.054Z,75.30
2017-04-01T06:16:08.799Z,75.10
2017-04-01T06:17:12.600Z,76.60
2017-04-01T06:18:17.987Z,76.80
2017-04-01T06:19:21.706Z,77.10
2017-04-01T06:20:25.840Z,76.70
2017-04-01T06:21:29.513Z,78.10
2017-04-01T06:22:33.249Z,78.20
2017-04-01T06:23:37.849Z,79.20
2017-04-01T06:24:41.881Z,78.80
2017-04-01T06:25:45.690Z,78.70
2017-04-01T06:26:49.661Z,78.30
2017-04-01T06:27:54.398Z,76.80
2017-04-01T06:28:58.354Z,77.10
2017-04-01T06:30:02.064Z,76.90
2017-04-01T06:31:05.159Z,76.50
2017-04-01T06:32:09.186Z,77.50
2017-04-01T06:33:13.794Z,78.80
2017-04-01T06:34:18.509Z,77.70
2017-04-01T06:35:22.212Z,78.20
2017-04-01T06:36:25.316Z,77.30
2017-04-01T06:37:29.182Z,77.30
2017-04-01T06:38:32.229Z,77.60
2017-04-01T06:39:35.799Z,76.60
2017-04-01T06:40:39.479Z,76.90
2017-04-01T06:41:42.976Z,76.70
2017-04-01T06:42:46.456Z,76.20
2017-04-01T06:43:50.293Z,76.70
2017-04-01T06:44:53.871Z,74.80
2017-04-01T06:45:57.671Z,73.70
2017-04-01T06:47:01.628Z,72.30
2017-04-01T06:48:05.227Z,73.60
2017-04-01T06:49:09.137Z,75.30
2017-04-01T06:50:12.926Z,77.00
2017-04-01T06:51:16.844Z,76.70
2017-04-01T06:52:20.451Z,78.70
2017-04-01T06:53:25.233Z,79.00
2017-04-01T06:54:29.177Z,78.90
2017-04-01T06:55:32.863Z,79.10
2017-04-01T06:56:37.573Z,77.80
2017-04-01T06:57:41.323Z,76.90
2017-04-01T06:58:45.031Z,75.50
2017-04-01T06:59:49.088Z,74.60
2017-04-01T07:00:53.093Z,75.70
2017-04-01T07:01:56.891Z,76.00
2017-04-01T07:03:00.950Z,74.60
2017-04-01T07:04:04.307Z,75.50
2017-04-01T07:05:07.975Z,77.50
2017-04-01T07:06:11.999Z,73.70
2017-04-01T07:07:15.303Z,73.50
2017-04-01T07:08:19.057Z,72.50
2017-04-01T07:09:22.850Z,73.00
2017-04-01T07:10:26.470Z,72.70
2017-04-01T07:11:30.351Z,72.30
2017-04-01T07:12:34.010Z,72.30
2017-04-01T07:13:37.805Z,72.40
2017-04-01T07:14:41.382Z,72.10
2017-04-01T07:15:45.161Z,72.20
2017-04-01T07:16:48.676Z,72.20
2017-04-01T07:17:52.771Z,72.00
2017-04-01T07:18:58.336Z,72.20
2017-04-01T07:20:02.082Z,72.30
2017-04-01T07:21:05.934Z,72.20
2017-04-01T07:22:09.867Z,72.10
2017-04-01T07:23:13.980Z,72.30
2017-04-01T07:24:17.746Z,72.20
2017-04-01T07:25:21.213Z,72.30
2017-04-01T07:26:25.169Z,72.40
2017-04-01T07:27:29.036Z,73.30
2017-04-01T07:28:32.949Z,72.30
2017-04-01T07:29:36.749Z,72.40
2017-04-01T07:30:40.904Z,71.40
2017-04-01T07:31:44.939Z,70.90
2017-04-01T07:32:48.785Z,70.30
2017-04-01T07:33:52.460Z,71.30
2017-04-01T07:34:56.304Z,70.70
2017-04-01T07:36:00.169Z,69.30
2017-04-01T07:37:04.045Z,69.50
2017-04-01T07:38:07.964Z,69.70
2017-04-01T07:39:11.842Z,69.40
2017-04-01T07:40:15.032Z,69.50
2017-04-01T07:41:18.615Z,68.80
2017-04-01T07:42:22.736Z,68.00
2017-04-01T07:43:27.143Z,67.70
2017-04-01T07:44:31.213Z,67.50
2017-04-01T07:45:34.880Z,67.60
2017-04-01T07:46:38.596Z,68.00
2017-04-01T07:47:42.446Z,68.40
2017-04-01T07:48:46.078Z,69.60
2017-04-01T07:49:49.986Z,70.90
2017-04-01T07:50:54.713Z,73.40
2017-04-01T07:51:58.721Z,74.30
2017-04-01T07:53:02.253Z,75.10
2017-04-01T07:54:05.919Z,74.90
2017-04-01T07:55:09.770Z,74.20
2017-04-01T07:56:13.615Z,74.70
2017-04-01T07:57:17.525Z,74.00
2017-04-01T07:58:21.309Z,74.30
2017-04-01T07:59:25.003Z,75.20
2017-04-01T08:00:28.811Z,76.40
2017-04-01T08:01:32.422Z,77.60
2017-04-01T08:02:36.388Z,78.70
2017-04-01T08:03:40.184Z,78.20
2017-04-01T08:04:44.098Z,78.50
2017-04-01T08:05:48.035Z,79.20
2017-04-01T08:06:51.916Z,80.70
2017-04-01T08:07:55.831Z,81.40
2017-04-01T08:08:59.848Z,81.80
2017-04-01T08:11:11.549Z,81.30
2017-04-01T08:12:15.123Z,80.10
2017-04-01T08:13:18.985Z,79.60
2017-04-01T08:14:22.466Z,79.00
2017-04-01T08:15:25.971Z,79.90
2017-04-01T08:16:29.952Z,81.10
2017-04-01T08:17:33.742Z,82.00
2017-04-01T08:18:36.888Z,82.10
2017-04-01T08:19:41.370Z,83.60
2017-04-01T08:20:45.906Z,83.50
2017-04-01T08:21:49.815Z,84.60
2017-04-01T08:22:53.536Z,85.80
2017-04-01T08:23:57.258Z,86.70
2017-04-01T08:25:01.017Z,87.40
2017-04-01T08:26:04.560Z,88.90
2017-04-01T08:27:08.561Z,90.00
2017-04-01T08:28:12.411Z,90.10
2017-04-01T08:29:16.311Z,90.20
2017-04-01T08:30:19.888Z,90.00
2017-04-01T08:31:24.072Z,89.50
2017-04-01T08:32:28.197Z,87.90
2017-04-01T08:33:32.175Z,87.30
2017-04-01T08:34:36.188Z,85.80
2017-04-01T08:35:40.197Z,84.40
2017-04-01T08:36:43.816Z,83.50
2017-04-01T08:37:47.710Z,83.40
2017-04-01T08:38:51.606Z,83.40
2017-04-01T08:39:55.533Z,83.80
2017-04-01T08:40:59.182Z,83.60
2017-04-01T08:42:02.844Z,83.60
2017-04-01T08:43:06.652Z,82.20
2017-04-01T08:44:10.690Z,80.40
2017-04-01T08:45:14.391Z,80.20
2017-04-01T08:46:18.394Z,80.90
2017-04-01T08:47:22.062Z,82.70
2017-04-01T08:48:26.444Z,84.30
2017-04-01T08:49:30.496Z,84.60
2017-04-01T08:50:34.130Z,84.30
2017-04-01T08:51:37.729Z,84.80
2017-04-01T08:52:41.577Z,84.40
2017-04-01T08:53:45.443Z,84.90
2017-04-01T08:54:49.737Z,85.60
2017-04-01T08:55:53.199Z,85.10
2017-04-01T08:56:57.250Z,85.00
2017-04-01T08:58:00.744Z,85.00
2017-04-01T08:59:04.912Z,84.90
2017-04-01T09:00:08.823Z,84.80
2017-04-01T09:01:12.905Z,84.80
2017-04-01T09:02:16.813Z,84.50
2017-04-01T09:03:20.821Z,82.70
2017-04-01T09:04:24.491Z,80.50
2017-04-01T09:05:29.081Z,79.00
2017-04-01T09:06:33.174Z,79.30
2017-04-01T09:07:37.816Z,80.70
2017-04-01T09:08:41.679Z,81.50
2017-04-01T09:09:45.466Z,82.50
2017-04-01T09:10:49.083Z,83.10
2017-04-01T09:11:52.936Z,83.80
2017-04-01T09:12:56.461Z,84.00
2017-04-01T09:14:00.284Z,83.70
2017-04-01T09:15:04.022Z,83.60
2017-04-01T09:16:07.746Z,84.00
2017-04-01T09:17:11.014Z,85.40
2017-04-01T09:18:14.566Z,85.00
2017-04-01T09:19:18.011Z,85.80
2017-04-01T09:20:22.430Z,86.40
2017-04-01T09:21:26.473Z,86.50
2017-04-01T09:22:30.191Z,86.00
2017-04-01T09:23:33.920Z,85.70
2017-04-01T09:24:37.897Z,84.90
2017-04-01T09:25:42.455Z,82.80
2017-04-01T09:26:45.955Z,81.10
2017-04-01T09:27:49.790Z,79.50
2017-04-01T09:28:53.252Z,79.70
2017-04-01T09:29:57.098Z,80.20
2017-04-01T09:31:00.877Z,80.70
2017-04-01T09:32:04.307Z,80.90
2017-04-01T09:33:07.978Z,80.40
2017-04-01T09:34:12.759Z,79.70
2017-04-01T09:35:16.245Z,78.00
2017-04-01T09:36:20.130Z,77.80
2017-04-01T09:37:23.980Z,75.70
2017-04-01T09:38:27.778Z,75.60
2017-04-01T09:39:32.257Z,74.30
2017-04-01T09:40:35.953Z,73.60
2017-04-01T09:41:40.056Z,72.80
2017-04-01T09:42:43.970Z,72.20
2017-04-01T09:43:47.665Z,71.60
2017-04-01T09:44:51.638Z,72.00
2017-04-01T09:45:55.439Z,71.70
2017-04-01T09:46:59.161Z,71.50
2017-04-01T09:48:02.648Z,72.40
2017-04-01T09:49:06.386Z,74.10
2017-04-01T09:50:10.173Z,74.50
2017-04-01T09:51:13.790Z,75.10
2017-04-01T09:52:17.785Z,74.70
2017-04-01T09:53:21.691Z,74.90
2017-04-01T09:54:25.134Z,75.10
2017-04-01T09:55:28.893Z,75.40
2017-04-01T09:56:32.839Z,76.50
2017-04-01T09:57:36.381Z,76.60
2017-04-01T09:58:40.205Z,77.70
2017-04-01T09:59:44.598Z,78.50
2017-04-01T10:00:48.200Z,78.90
2017-04-01T10:01:52.026Z,79.90
2017-04-01T10:02:55.790Z,80.50
2017-04-01T10:03:59.484Z,79.90
2017-04-01T10:05:03.335Z,79.40
2017-04-01T10:06:06.836Z,78.40
2017-04-01T10:07:10.490Z,78.40
2017-04-01T10:08:14.884Z,78.50
2017-04-01T10:09:18.057Z,77.90
2017-04-01T10:10:22.893Z,75.90
2017-04-01T10:11:26.457Z,75.50
2017-04-01T10:12:30.194Z,74.60
2017-04-01T10:13:34.000Z,74.40
2017-04-01T10:14:38.025Z,74.00
2017-04-01T10:15:41.598Z,72.80
2017-04-01T10:16:45.407Z,72.10
2017-04-01T10:17:49.018Z,71.70
2017-04-01T10:18:53.062Z,71.10
2017-04-01T10:19:56.533Z,71.40
2017-04-01T10:21:00.939Z,71.30
2017-04-01T10:22:04.890Z,71.60
2017-04-01T10:23:08.412Z,71.50
2017-04-01T10:24:12.356Z,71.70
2017-04-01T10:25:16.296Z,72.00
2017-04-01T10:26:19.756Z,72.30
2017-04-01T10:27:23.307Z,72.20
2017-04-01T10:28:27.647Z,71.80
2017-04-01T10:29:31.366Z,72.30
2017-04-01T10:30:35.152Z,71.30
2017-04-01T10:31:39.094Z,71.30
2017-04-01T10:32:42.614Z,71.80
2017-04-01T10:33:46.063Z,71.70
2017-04-01T10:34:49.646Z,71.40
2017-04-01T10:35:53.308Z,71.00
2017-04-01T10:36:57.177Z,71.30
2017-04-01T10:38:01.140Z,71.60
2017-04-01T10:39:05.114Z,71.70
2017-04-01T10:40:08.927Z,71.30
2017-04-01T10:41:12.382Z,71.20
2017-04-01T10:42:16.214Z,71.10
2017-04-01T10:43:20.002Z,70.80
2017-04-01T10:44:23.469Z,71.00
2017-04-01T10:45:27.338Z,70.80
2017-04-01T10:46:30.955Z,71.00
2017-04-01T10:47:34.662Z,71.10
2017-04-01T10:48:38.393Z,71.50
2017-04-01T10:49:42.102Z,71.30
2017-04-01T10:51:49.405Z,71.30
2017-04-01T10:52:52.919Z,71.20
2017-04-01T10:53:56.672Z,69.10
2017-04-01T10:55:00.425Z,69.30
2017-04-01T10:56:04.190Z,68.90
2017-04-01T10:57:08.099Z,69.50
2017-04-01T10:58:12.039Z,69.30
2017-04-01T10:59:15.567Z,69.90
2017-04-01T11:00:19.473Z,71.70
2017-04-01T11:01:23.487Z,72.00
2017-04-01T11:02:26.940Z,72.20
2017-04-01T11:03:30.626Z,72.10
2017-04-01T11:04:34.139Z,72.30
2017-04-01T11:05:37.896Z,73.50
2017-04-01T11:06:41.906Z,75.10
2017-04-01T11:07:45.932Z,75.50
2017-04-01T11:08:50.180Z,76.20
2017-04-01T11:09:53.863Z,76.10
2017-04-01T11:10:57.605Z,75.70
2017-04-01T11:12:01.325Z,76.40
2017-04-01T11:13:04.527Z,77.00
2017-04-01T11:14:08.377Z,78.40
2017-04-01T11:15:12.117Z,78.90
2017-04-01T11:16:16.118Z,79.60
2017-04-01T11:17:20.013Z,80.10
2017-04-01T11:18:23.559Z,80.70
2017-04-01T11:19:27.368Z,81.30
2017-04-01T11:20:31.250Z,81.40
2017-04-01T11:21:35.425Z,81.30
2017-04-01T11:22:38.977Z,81.70
2017-04-01T11:23:42.449Z,81.60
2017-04-01T11:24:46.349Z,81.70
2017-04-01T11:25:50.159Z,80.10
2017-04-01T11:26:54.072Z,78.80
2017-04-01T11:27:57.768Z,78.40
2017-04-01T11:29:01.648Z,77.70
2017-04-01T11:30:05.235Z,76.40
2017-04-01T11:31:08.901Z,74.70
2017-04-01T11:32:12.821Z,74.30
2017-04-01T11:33:16.711Z,73.90
2017-04-01T11:34:20.612Z,74.80
2017-04-01T11:35:24.386Z,76.30
2017-04-01T11:36:28.102Z,78.90
2017-04-01T11:37:32.320Z,79.90
2017-04-01T11:38:36.065Z,80.50
2017-04-01T11:39:39.653Z,81.50
2017-04-01T11:40:43.358Z,82.20
2017-04-01T11:41:47.080Z,82.40
2017-04-01T11:42:50.747Z,82.10
2017-04-01T11:43:54.422Z,82.20
2017-04-01T11:44:58.276Z,81.20
2017-04-01T11:46:02.348Z,81.40
2017-04-01T11:47:06.176Z,79.40
2017-04-01T11:48:10.115Z,78.10
2017-04-01T11:49:13.740Z,76.80
2017-04-01T11:50:17.709Z,76.80
2017-04-01T11:52:39.267Z,77.10
2017-04-01T11:53:44.677Z,77.20
2017-04-01T11:54:48.337Z,77.50
2017-04-01T11:55:52.350Z,78.10
2017-04-01T11:56:56.192Z,79.90
2017-04-01T11:58:00.963Z,80.10
2017-04-01T11:59:05.340Z,80.20
2017-04-01T12:00:09.147Z,79.60
2017-04-01T12:01:12.791Z,78.90
2017-04-01T12:02:17.858Z,77.90
2017-04-01T12:03:21.823Z,77.50
2017-04-01T12:04:26.200Z,77.30
2017-04-01T12:05:31.568Z,77.30
2017-04-01T12:06:40.557Z,77.50
2017-04-01T12:07:44.363Z,79.70
2017-04-01T12:08:48.124Z,81.30
2017-04-01T12:09:54.327Z,81.40
2017-04-01T12:10:59.298Z,81.90
2017-04-01T12:12:03.764Z,82.50
2017-04-01T12:13:08.529Z,82.10
2017-04-01T12:14:12.075Z,81.70
2017-04-01T12:15:15.853Z,81.20
2017-04-01T12:16:23.727Z,80.60
2017-04-01T12:17:27.465Z,77.60
2017-04-01T12:18:33.598Z,77.40
2017-04-01T12:19:37.302Z,76.40
2017-04-01T12:21:53.204Z,76.60
2017-04-01T12:22:56.761Z,76.80
2017-04-01T12:24:00.543Z,77.20
2017-04-01T12:25:04.292Z,77.20
2017-04-01T12:26:11.009Z,76.00
2017-04-01T12:27:14.637Z,76.10
2017-04-01T12:28:18.167Z,77.20
2017-04-01T12:29:21.811Z,78.00
2017-04-01T12:30:25.542Z,79.80
2017-04-01T12:31:32.821Z,81.10
2017-04-01T12:32:37.735Z,81.70
2017-04-01T12:33:41.686Z,82.30
2017-04-01T12:34:45.455Z,82.10
2017-04-01T12:35:49.287Z,82.00
2017-04-01T12:36:52.981Z,81.40
2017-04-01T12:37:56.851Z,80.10
2017-04-01T12:39:00.491Z,80.70
2017-04-01T12:40:03.868Z,80.50
2017-04-01T12:41:07.455Z,78.60
2017-04-01T12:42:12.119Z,78.40
2017-04-01T12:43:16.184Z,78.00
2017-04-01T12:44:20.096Z,78.80
2017-04-01T12:45:25.031Z,80.00
2017-04-01T12:46:28.665Z,82.50
2017-04-01T12:47:32.352Z,83.10
2017-04-01T12:48:36.066Z,83.40
2017-04-01T12:49:39.933Z,83.30
2017-04-01T12:50:43.580Z,83.40
2017-04-01T12:51:47.299Z,82.60
2017-04-01T12:52:52.110Z,83.30
2017-04-01T12:53:55.869Z,83.00
2017-04-01T12:54:59.615Z,83.20
2017-04-01T12:56:03.971Z,82.50
2017-04-01T12:57:07.959Z,81.80
2017-04-01T12:58:11.808Z,81.10
2017-04-01T12:59:15.457Z,81.30
2017-04-01T13:00:19.436Z,80.00
2017-04-01T13:01:23.600Z,79.50
2017-04-01T13:02:27.570Z,80.90
2017-04-01T13:03:31.828Z,80.60
2017-04-01T13:04:35.682Z,80.70
2017-04-01T13:05:39.182Z,80.90
2017-04-01T13:06:43.239Z,82.40
2017-04-01T13:07:47.158Z,82.80
2017-04-01T13:08:50.958Z,82.00
2017-04-01T13:09:54.745Z,81.10
2017-04-01T13:10:58.332Z,80.50
2017-04-01T13:12:03.644Z,81.50
2017-04-01T13:13:07.503Z,80.50
2017-04-01T13:14:11.328Z,79.80
2017-04-01T13:15:14.874Z,80.30
2017-04-01T13:16:18.567Z,80.30
2017-04-01T13:17:22.231Z,80.20
2017-04-01T13:18:26.146Z,78.70
2017-04-01T13:19:29.893Z,78.00
2017-04-01T13:20:33.682Z,75.90
2017-04-01T13:21:37.509Z,77.40
2017-04-01T13:22:48.348Z,77.10
2017-04-01T13:23:52.017Z,78.50
2017-04-01T13:24:56.526Z,78.30
2017-04-01T13:26:00.627Z,78.70
2017-04-01T13:27:03.976Z,78.00
2017-04-01T13:28:07.631Z,77.50
2017-04-01T13:29:11.557Z,76.80
2017-04-01T13:30:15.314Z,76.10
2017-04-01T13:31:19.057Z,75.80
2017-04-01T13:32:23.061Z,75.60
2017-04-01T13:33:26.808Z,75.60
2017-04-01T13:34:30.241Z,74.90
2017-04-01T13:35:34.133Z,74.60
2017-04-01T13:36:38.228Z,74.20
2017-04-01T13:37:42.253Z,74.80
2017-04-01T13:38:45.911Z,75.10
2017-04-01T13:39:50.455Z,75.20
2017-04-01T13:40:55.277Z,74.80
2017-04-01T13:41:59.726Z,74.70
2017-04-01T13:43:03.636Z,74.80
2017-04-01T13:44:08.725Z,73.70
2017-04-01T13:45:12.406Z,73.20
2017-04-01T13:46:16.150Z,73.30
2017-04-01T13:47:20.438Z,73.40
2017-04-01T13:48:24.763Z,73.70
2017-04-01T13:49:28.352Z,73.40